createdAt,value
2024-05-09T00:00:46.821Z,88.83
2024-05-09T00:03:19.408Z,88.54
2024-05-09T00:05:48.965Z,91.36
2024-05-09T00:08:18.588Z,90.21
2024-05-09T00:10:48.284Z,90.07
2024-05-09T00:13:17.892Z,89.33
2024-05-09T00:15:47.351Z,89.46
2024-05-09T00:18:19.606Z,89.16
2024-05-09T00:20:49.258Z,89.89
2024-05-09T00:23:18.913Z,89.67
2024-05-09T00:25:48.466Z,89.21
2024-05-09T00:28:18.171Z,89.41
2024-05-09T00:30:47.933Z,90.02
2024-05-09T00:33:20.529Z,89.99
2024-05-09T00:35:50.078Z,89.76
2024-05-09T00:38:19.652Z,90.13
2024-05-09T00:40:49.188Z,89.53
2024-05-09T00:43:18.844Z,89.87
2024-05-09T00:45:49.154Z,89.66
2024-05-09T00:48:21.814Z,89.74
2024-05-09T00:50:54.205Z,89.76
2024-05-09T00:53:23.929Z,90.31
2024-05-09T00:55:55.854Z,90.94
2024-05-09T00:58:27.445Z,90.22
2024-05-09T01:00:58.841Z,90.46
2024-05-09T01:03:31.069Z,90.19
2024-05-09T01:06:00.780Z,90.83
2024-05-09T01:08:30.519Z,90.04
2024-05-09T01:11:00.315Z,89.90
2024-05-09T01:13:29.851Z,90.48
2024-05-09T01:15:59.611Z,90.77
2024-05-09T01:18:32.057Z,90.58
2024-05-09T01:21:01.768Z,90.72
2024-05-09T01:23:34.199Z,91.52
2024-05-09T01:26:03.904Z,91.16
2024-05-09T01:28:33.433Z,91.13
2024-05-09T01:31:02.972Z,91.20
2024-05-09T01:33:33.122Z,90.88
2024-05-09T01:36:02.946Z,90.19
2024-05-09T01:38:35.650Z,90.33
2024-05-09T01:41:05.272Z,89.90
2024-05-09T01:43:34.947Z,90.31
2024-05-09T01:46:04.463Z,89.41
2024-05-09T01:48:34.007Z,89.48
2024-05-09T01:51:03.598Z,89.94
2024-05-09T01:53:35.842Z,89.83
2024-05-09T01:56:05.584Z,89.98
2024-05-09T01:58:35.098Z,89.88
2024-05-09T02:01:05.207Z,90.50
2024-05-09T02:03:35.018Z,89.46
2024-05-09T02:06:04.802Z,89.99
2024-05-09T02:08:37.349Z,90.70
2024-05-09T02:11:08.832Z,89.95
2024-05-09T02:13:38.474Z,90.46
2024-05-09T02:16:12.966Z,90.29
2024-05-09T02:18:42.817Z,90.16
2024-05-09T02:21:12.542Z,90.25
2024-05-09T02:23:44.707Z,90.00
2024-05-09T02:26:14.334Z,90.61
2024-05-09T02:28:43.952Z,90.43
2024-05-09T02:31:14.582Z,90.85
2024-05-09T02:33:44.342Z,90.03
2024-05-09T02:36:13.968Z,90.61
2024-05-09T02:38:43.506Z,89.80
2024-05-09T02:41:13.226Z,90.08
2024-05-09T02:43:40.361Z,89.91
2024-05-09T02:46:10.147Z,90.38
2024-05-09T02:48:37.363Z,90.17
2024-05-09T02:51:07.528Z,89.65
2024-05-09T02:53:34.735Z,89.60
2024-05-09T02:56:07.521Z,89.60
2024-05-09T02:58:34.396Z,89.77
2024-05-09T03:01:04.020Z,89.90
2024-05-09T03:03:31.558Z,90.05
2024-05-09T03:06:01.301Z,90.27
2024-05-09T03:08:28.555Z,89.86
2024-05-09T03:10:58.142Z,89.30
2024-05-09T03:13:27.853Z,89.87
2024-05-09T03:15:57.460Z,90.21
2024-05-09T03:18:24.408Z,89.82
2024-05-09T03:20:54.191Z,90.06
2024-05-09T03:23:21.834Z,90.20
2024-05-09T03:25:51.470Z,89.94
2024-05-09T03:28:18.447Z,90.08
2024-05-09T03:30:50.574Z,90.08
2024-05-09T03:33:21.058Z,90.08
2024-05-09T03:35:49.513Z,89.35
2024-05-09T03:38:19.376Z,89.90
2024-05-09T03:40:50.345Z,90.83
2024-05-09T03:43:18.435Z,90.85
2024-05-09T03:45:51.979Z,89.68
2024-05-09T03:48:19.141Z,90.08
2024-05-09T03:50:49.142Z,90.35
2024-05-09T03:53:16.525Z,91.61
2024-05-09T03:55:46.199Z,91.29
2024-05-09T03:58:14.547Z,91.45
2024-05-09T04:00:44.665Z,91.32
2024-05-09T04:03:15.054Z,91.35
2024-05-09T04:05:46.108Z,90.93
2024-05-09T04:08:14.606Z,90.61
2024-05-09T04:10:44.763Z,90.48
2024-05-09T04:13:11.898Z,90.94
2024-05-09T04:15:41.726Z,90.82
2024-05-09T04:18:09.063Z,91.03
2024-05-09T04:20:41.732Z,91.00
2024-05-09T04:23:12.119Z,91.13
2024-05-09T04:25:45.373Z,91.24
2024-05-09T04:28:13.003Z,90.49
2024-05-09T04:30:43.302Z,90.23
2024-05-09T04:33:12.924Z,90.68
2024-05-09T04:35:47.251Z,90.87
2024-05-09T04:38:15.209Z,90.45
2024-05-09T04:40:45.453Z,90.37
2024-05-09T04:43:17.251Z,90.55
2024-05-09T04:45:47.583Z,90.44
2024-05-09T04:48:16.509Z,91.01
2024-05-09T04:50:49.335Z,90.22
2024-05-09T04:53:17.038Z,90.22
2024-05-09T04:55:46.904Z,89.72
2024-05-09T04:58:14.006Z,89.36
2024-05-09T05:00:45.707Z,89.63
2024-05-09T05:03:15.513Z,90.14
2024-05-09T05:05:49.182Z,88.76
2024-05-09T05:08:18.071Z,88.48
2024-05-09T05:10:49.614Z,87.84
2024-05-09T05:13:20.255Z,86.32
2024-05-09T05:15:52.280Z,84.45
2024-05-09T05:18:19.832Z,81.19
2024-05-09T05:20:52.452Z,77.61
2024-05-09T05:23:20.727Z,75.06
2024-05-09T05:25:52.837Z,72.03
2024-05-09T05:28:20.488Z,70.56
2024-05-09T05:30:50.554Z,67.92
2024-05-09T05:33:18.888Z,66.94
2024-05-09T05:35:49.111Z,65.94
2024-05-09T05:38:20.048Z,65.25
2024-05-09T05:40:51.075Z,65.50
2024-05-09T05:43:18.799Z,65.19
2024-05-09T05:45:48.478Z,64.90
2024-05-09T05:48:17.212Z,64.81
2024-05-09T05:50:47.572Z,65.93
2024-05-09T05:53:14.757Z,64.43
2024-05-09T05:55:47.381Z,64.21
2024-05-09T05:58:14.996Z,63.20
2024-05-09T06:00:44.997Z,64.03
2024-05-09T06:03:12.917Z,64.14
2024-05-09T06:05:44.301Z,64.03
2024-05-09T06:08:11.869Z,62.90
2024-05-09T06:10:42.284Z,62.44
2024-05-09T06:13:14.461Z,62.37
2024-05-09T06:15:44.809Z,62.04
2024-05-09T06:18:12.844Z,61.53
2024-05-09T06:20:43.867Z,61.22
2024-05-09T06:23:12.390Z,60.11
2024-05-09T06:25:42.763Z,60.11
2024-05-09T06:28:12.592Z,59.45
2024-05-09T06:30:43.288Z,62.32
2024-05-09T06:33:13.139Z,60.01
2024-05-09T06:35:45.195Z,59.90
2024-05-09T06:38:12.626Z,59.07
2024-05-09T06:40:44.370Z,59.86
2024-05-09T06:43:17.800Z,59.92
2024-05-09T06:45:49.576Z,58.44
2024-05-09T06:48:18.044Z,57.43
2024-05-09T06:50:48.307Z,57.50
2024-05-09T06:53:16.206Z,59.51
2024-05-09T06:55:46.116Z,56.36
2024-05-09T06:58:16.235Z,55.15
2024-05-09T07:00:45.916Z,57.70
2024-05-09T07:03:16.793Z,55.68
2024-05-09T07:05:49.448Z,55.88
2024-05-09T07:08:17.618Z,56.21
2024-05-09T07:10:47.633Z,58.61
2024-05-09T07:13:18.017Z,58.37
2024-05-09T07:15:47.699Z,58.83
2024-05-09T07:18:17.584Z,59.31
2024-05-09T07:20:49.551Z,59.11
2024-05-09T07:23:18.085Z,60.21
2024-05-09T07:25:47.913Z,61.79
2024-05-09T07:28:19.262Z,62.16
2024-05-09T07:30:49.142Z,63.11
2024-05-09T07:33:17.183Z,62.98
2024-05-09T07:35:47.262Z,62.27
2024-05-09T07:38:14.313Z,63.15
2024-05-09T07:40:44.307Z,62.76
2024-05-09T07:43:11.817Z,63.09
2024-05-09T07:45:51.679Z,61.96
2024-05-09T07:52:38.445Z,64.59
2024-05-09T07:53:46.299Z,64.50
2024-05-09T07:56:21.709Z,64.04
2024-05-09T07:58:51.243Z,65.17
2024-05-09T08:01:25.838Z,64.53
2024-05-09T08:03:53.734Z,64.63
2024-05-09T08:06:23.584Z,64.82
2024-05-09T08:08:50.566Z,66.78
2024-05-09T08:11:20.608Z,66.46
2024-05-09T08:13:47.595Z,66.02
2024-05-09T08:16:17.519Z,68.66
2024-05-09T08:18:49.877Z,70.35
2024-05-09T08:21:16.787Z,68.55
2024-05-09T08:23:46.207Z,67.48
2024-05-09T08:26:13.111Z,66.25
2024-05-09T08:28:42.663Z,66.63
2024-05-09T08:31:11.736Z,67.45
2024-05-09T08:33:51.101Z,69.00
2024-05-09T08:36:18.525Z,66.56
2024-05-09T08:38:48.247Z,65.27
2024-05-09T08:41:15.445Z,65.95
2024-05-09T08:43:47.118Z,65.64
2024-05-09T08:46:14.441Z,65.13
2024-05-09T08:48:46.082Z,67.26
2024-05-09T08:51:16.477Z,65.46
2024-05-09T08:53:46.269Z,64.29
2024-05-09T08:56:13.478Z,64.00
2024-05-09T08:58:44.702Z,63.72
2024-05-09T09:01:14.352Z,63.69
2024-05-09T09:03:45.138Z,63.37
2024-05-09T09:06:14.531Z,63.45
2024-05-09T09:08:48.062Z,65.26
2024-05-09T09:11:15.041Z,64.55
2024-05-09T09:13:44.617Z,64.05
2024-05-09T09:16:12.985Z,61.99
2024-05-09T09:18:47.074Z,61.85
2024-05-09T09:21:14.280Z,61.73
2024-05-09T09:23:46.517Z,62.54
2024-05-09T09:26:15.982Z,61.56
2024-05-09T09:28:46.407Z,60.62
2024-05-09T09:31:17.849Z,62.24
2024-05-09T09:33:47.751Z,60.65
2024-05-09T09:36:14.972Z,58.08
2024-05-09T09:38:49.440Z,61.28
2024-05-09T09:41:19.901Z,60.12
2024-05-09T09:43:50.431Z,58.41
2024-05-09T09:46:19.515Z,58.24
2024-05-09T09:48:50.607Z,59.51
2024-05-09T09:51:17.942Z,60.56
2024-05-09T09:53:51.739Z,57.45
2024-05-09T09:56:20.338Z,59.85
2024-05-09T09:58:51.662Z,54.76
2024-05-09T10:01:19.198Z,55.14
2024-05-09T10:03:49.937Z,53.58
2024-05-09T10:06:18.953Z,59.08
2024-05-09T10:08:52.375Z,54.90
2024-05-09T10:11:20.508Z,56.23
2024-05-09T10:13:50.240Z,55.65
2024-05-09T10:16:21.181Z,56.70
2024-05-09T10:18:51.111Z,58.41
2024-05-09T10:21:19.372Z,56.92
2024-05-09T10:24:02.608Z,60.87
2024-05-09T10:26:33.350Z,57.11
2024-05-09T10:29:03.510Z,62.02
2024-05-09T10:31:31.243Z,60.23
2024-05-09T10:34:03.596Z,63.11
2024-05-09T10:36:30.871Z,55.53
2024-05-09T10:39:03.169Z,59.04
2024-05-09T10:41:30.357Z,57.34
2024-05-09T10:44:00.096Z,53.23
2024-05-09T10:46:27.041Z,57.35
2024-05-09T10:48:56.972Z,56.23
2024-05-09T10:51:24.776Z,56.68
2024-05-09T10:53:56.716Z,55.40
2024-05-09T10:56:26.407Z,52.99
2024-05-09T10:58:56.184Z,52.72
2024-05-09T11:01:23.414Z,55.25
2024-05-09T11:03:53.341Z,56.30
2024-05-09T11:06:20.519Z,57.04
2024-05-09T11:08:50.522Z,52.75
2024-05-09T11:11:17.788Z,50.27
2024-05-09T11:13:49.943Z,57.03
2024-05-09T11:16:20.038Z,58.14
2024-05-09T11:18:58.110Z,58.35
2024-05-09T11:21:25.731Z,58.09
2024-05-09T11:23:55.585Z,56.41
2024-05-09T11:26:25.277Z,57.43
2024-05-09T11:28:57.709Z,59.25
2024-05-09T11:31:25.314Z,55.02
2024-05-09T11:33:57.186Z,59.61
2024-05-09T11:36:24.274Z,59.52
2024-05-09T11:38:53.807Z,60.41
2024-05-09T11:41:20.790Z,59.99
2024-05-09T11:43:50.389Z,56.71
2024-05-09T11:46:20.752Z,54.29
2024-05-09T11:48:50.580Z,50.44
2024-05-09T11:51:17.674Z,54.79
2024-05-09T11:53:47.235Z,54.26
2024-05-09T11:56:15.596Z,53.25
2024-05-09T11:58:45.369Z,51.11
2024-05-09T12:01:12.379Z,49.07
2024-05-09T12:03:44.760Z,48.23
2024-05-09T12:06:12.057Z,51.79
2024-05-09T12:08:41.894Z,53.98
2024-05-09T12:11:09.108Z,52.80
2024-05-09T12:13:38.737Z,54.58
2024-05-09T12:16:06.317Z,53.30
2024-05-09T12:18:36.581Z,54.56
2024-05-09T12:21:06.662Z,48.36
2024-05-09T12:23:36.224Z,54.30
2024-05-09T12:26:03.351Z,51.86
2024-05-09T12:28:32.952Z,53.51
2024-05-09T12:31:00.078Z,54.05
2024-05-09T12:33:30.022Z,52.93
2024-05-09T12:35:57.091Z,54.71
2024-05-09T12:38:29.563Z,54.92
2024-05-09T12:40:56.632Z,55.64
2024-05-09T12:43:26.367Z,56.46
2024-05-09T12:45:53.630Z,55.19
2024-05-09T12:48:23.560Z,52.24
2024-05-09T12:50:51.869Z,54.61
2024-05-09T12:53:21.531Z,50.65
2024-05-09T12:55:56.868Z,47.45
2024-05-09T12:58:29.960Z,50.84
2024-05-09T13:00:57.351Z,52.71
2024-05-09T13:03:27.175Z,51.61
2024-05-09T13:05:54.749Z,48.67
2024-05-09T13:08:24.650Z,50.34
2024-05-09T13:10:54.592Z,52.86
2024-05-09T13:13:24.274Z,54.08
2024-05-09T13:15:51.396Z,54.76
2024-05-09T13:18:21.153Z,52.08
2024-05-09T13:20:48.303Z,53.91
2024-05-09T13:23:17.913Z,51.20
2024-05-09T13:25:44.875Z,51.47
2024-05-09T13:28:17.531Z,53.04
2024-05-09T13:30:44.441Z,50.74
2024-05-09T13:33:14.774Z,53.92
2024-05-09T13:35:47.238Z,52.07
2024-05-09T13:38:20.945Z,51.14
2024-05-09T13:40:48.742Z,51.37
2024-05-09T13:43:22.290Z,48.94
2024-05-09T13:45:49.907Z,55.44
2024-05-09T13:48:20.012Z,53.49
2024-05-09T13:50:47.443Z,55.19
2024-05-09T13:53:17.042Z,57.57
2024-05-09T13:55:44.170Z,59.53
2024-05-09T13:58:13.807Z,60.08
2024-05-09T14:00:48.086Z,60.59
2024-05-09T14:03:20.840Z,61.08
2024-05-09T14:05:49.962Z,61.10
2024-05-09T14:08:22.497Z,61.25
2024-05-09T14:10:50.900Z,60.68
2024-05-09T14:13:20.633Z,62.39
2024-05-09T14:15:50.492Z,62.64
2024-05-09T14:18:20.606Z,62.44
2024-05-09T14:20:47.600Z,62.34
2024-05-09T14:23:17.205Z,62.94
2024-05-09T14:25:45.991Z,63.04
2024-05-09T14:28:16.788Z,62.42
2024-05-09T14:30:43.802Z,62.26
2024-05-09T14:33:25.430Z,62.22
2024-05-09T14:35:52.684Z,61.80
2024-05-09T14:38:22.618Z,62.05
2024-05-09T14:40:50.743Z,62.25
2024-05-09T14:43:21.110Z,59.60
2024-05-09T14:45:48.334Z,61.45
2024-05-09T14:48:21.280Z,59.32
2024-05-09T14:50:48.653Z,60.12
2024-05-09T14:53:18.204Z,60.94
2024-05-09T14:55:45.653Z,61.35
2024-05-09T14:58:15.464Z,60.94
2024-05-09T15:00:46.807Z,60.36
2024-05-09T15:03:22.955Z,62.33
2024-05-09T15:05:51.173Z,60.40
2024-05-09T15:08:22.094Z,62.54
2024-05-09T15:10:50.123Z,62.09
2024-05-09T15:13:20.571Z,60.27
2024-05-09T15:15:47.756Z,60.00
2024-05-09T15:18:18.332Z,61.02
2024-05-09T15:20:48.818Z,63.32
2024-05-09T15:23:18.886Z,62.72
2024-05-09T15:25:46.082Z,62.43
2024-05-09T15:28:16.015Z,61.68
2024-05-09T15:30:46.302Z,62.98
2024-05-09T15:33:17.226Z,63.31
2024-05-09T15:35:46.872Z,62.05
2024-05-09T15:38:19.960Z,62.00
2024-05-09T15:40:47.277Z,63.52
2024-05-09T15:43:17.158Z,62.55
2024-05-09T15:45:47.259Z,62.63
2024-05-09T15:48:14.858Z,63.09
2024-05-09T15:50:45.462Z,62.29
2024-05-09T15:53:13.412Z,63.19
2024-05-09T15:55:46.600Z,62.23
2024-05-09T15:58:17.546Z,63.25
2024-05-09T16:00:49.584Z,64.79
2024-05-09T16:03:19.596Z,65.33
2024-05-09T16:05:49.387Z,64.75
2024-05-09T16:08:16.946Z,64.32
2024-05-09T16:10:49.754Z,64.49
2024-05-09T16:13:17.882Z,64.59
2024-05-09T16:15:47.914Z,63.87
2024-05-09T16:18:15.201Z,62.90
2024-05-09T16:20:46.471Z,63.20
2024-05-09T16:23:15.502Z,63.68
2024-05-09T16:25:47.935Z,63.24
2024-05-09T16:28:18.266Z,63.02
2024-05-09T16:30:48.189Z,63.42
2024-05-09T16:33:15.345Z,63.25
2024-05-09T16:35:44.987Z,63.25
2024-05-09T16:38:12.522Z,66.18
2024-05-09T16:40:42.192Z,66.30
2024-05-09T16:43:09.920Z,65.08
2024-05-09T16:45:44.622Z,65.75
2024-05-09T16:48:12.412Z,65.02
2024-05-09T16:50:42.004Z,66.80
2024-05-09T16:53:09.052Z,65.51
2024-05-09T16:55:38.794Z,65.78
2024-05-09T16:58:07.992Z,65.73
2024-05-09T17:00:42.155Z,65.13
2024-05-09T17:03:15.177Z,66.52
2024-05-09T17:05:47.181Z,65.87
2024-05-09T17:08:15.615Z,64.75
2024-05-09T17:10:45.587Z,65.16
2024-05-09T17:13:15.420Z,65.15
2024-05-09T17:15:45.086Z,67.01
2024-05-09T17:18:15.196Z,67.45
2024-05-09T17:20:45.018Z,66.68
2024-05-09T17:23:13.952Z,67.50
2024-05-09T17:25:44.608Z,66.67
2024-05-09T17:28:12.407Z,66.60
2024-05-09T17:30:43.101Z,66.34
2024-05-09T17:33:11.811Z,66.79
2024-05-09T17:35:46.114Z,67.52
2024-05-09T17:38:13.286Z,67.50
2024-05-09T17:40:42.947Z,69.57
2024-05-09T17:43:10.943Z,69.20
2024-05-09T17:45:42.100Z,68.70
2024-05-09T17:48:10.938Z,67.40
2024-05-09T17:50:42.063Z,68.00
2024-05-09T17:53:11.927Z,68.57
2024-05-09T17:55:41.746Z,68.76
2024-05-09T17:58:09.690Z,68.22
2024-05-09T18:00:41.929Z,67.78
2024-05-09T18:03:11.728Z,69.05
2024-05-09T18:05:43.823Z,68.22
2024-05-09T18:08:14.311Z,68.28
2024-05-09T18:10:44.644Z,69.13
2024-05-09T18:13:13.612Z,69.86
2024-05-09T18:15:45.210Z,70.23
2024-05-09T18:18:13.163Z,69.76
2024-05-09T18:20:45.664Z,71.08
2024-05-09T18:23:18.183Z,71.72
2024-05-09T18:25:48.851Z,71.56
2024-05-09T18:28:17.146Z,70.86
2024-05-09T18:30:47.251Z,71.10
2024-05-09T18:33:14.573Z,71.11
2024-05-09T18:35:45.789Z,71.07
2024-05-09T18:38:15.789Z,71.11
2024-05-09T18:40:48.357Z,70.40
2024-05-09T18:43:16.892Z,71.75
2024-05-09T18:45:47.518Z,70.92
2024-05-09T18:48:15.529Z,72.43
2024-05-09T18:50:45.335Z,74.06
2024-05-09T18:53:13.413Z,73.84
2024-05-09T18:55:46.259Z,74.14
2024-05-09T18:58:13.337Z,74.64
2024-05-09T19:00:45.439Z,73.62
2024-05-09T19:03:15.481Z,73.65
2024-05-09T19:05:46.501Z,73.45
2024-05-09T19:08:15.295Z,73.58
2024-05-09T19:10:48.109Z,74.05
2024-05-09T19:13:15.617Z,73.39
2024-05-09T19:15:45.872Z,73.79
2024-05-09T19:18:14.233Z,73.63
2024-05-09T19:20:44.875Z,76.06
2024-05-09T19:23:12.164Z,74.33
2024-05-09T19:25:41.923Z,73.85
2024-05-09T19:28:11.620Z,74.56
2024-05-09T19:30:42.785Z,73.66
2024-05-09T19:33:12.384Z,74.91
2024-05-09T19:35:43.370Z,75.00
2024-05-09T19:38:10.925Z,75.62
2024-05-09T19:40:40.725Z,75.11
2024-05-09T19:43:07.885Z,75.10
2024-05-09T19:45:40.269Z,75.85
2024-05-09T19:48:08.335Z,76.92
2024-05-09T19:50:42.887Z,77.39
2024-05-09T19:53:12.402Z,80.24
2024-05-09T19:55:42.662Z,77.66
2024-05-09T19:58:10.364Z,76.88
2024-05-09T20:00:44.168Z,77.01
2024-05-09T20:03:13.076Z,77.23
2024-05-09T20:05:44.339Z,77.36
2024-05-09T20:08:11.607Z,77.59
2024-05-09T20:10:41.248Z,78.10
2024-05-09T20:13:08.891Z,77.99
2024-05-09T20:15:39.990Z,78.37
2024-05-09T20:18:09.928Z,78.34
2024-05-09T20:20:42.753Z,78.25
2024-05-09T20:23:12.304Z,78.30
2024-05-09T20:25:42.281Z,78.23
2024-05-09T20:28:09.871Z,78.02
2024-05-09T20:30:39.751Z,77.78
2024-05-09T20:33:10.143Z,78.07
2024-05-09T20:35:40.110Z,78.61
2024-05-09T20:38:07.544Z,79.28
2024-05-09T20:40:39.269Z,79.01
2024-05-09T20:43:08.498Z,78.97
2024-05-09T20:45:38.791Z,78.40
2024-05-09T20:48:10.087Z,78.33
2024-05-09T20:50:42.074Z,78.48
2024-05-09T20:53:11.074Z,77.63
2024-05-09T20:55:40.985Z,77.44
2024-05-09T20:58:08.470Z,78.04
2024-05-09T21:00:42.116Z,78.13
2024-05-09T21:03:16.326Z,78.20
2024-05-09T21:05:47.595Z,78.27
2024-05-09T21:08:15.323Z,78.71
2024-05-09T21:10:44.909Z,78.82
2024-05-09T21:13:12.076Z,79.43
2024-05-09T21:15:41.712Z,79.43
2024-05-09T21:18:09.044Z,79.46
2024-05-09T21:20:41.255Z,79.56
2024-05-09T21:23:08.226Z,79.22
2024-05-09T21:25:37.798Z,78.70
2024-05-09T21:28:05.275Z,79.20
2024-05-09T21:30:41.448Z,79.83
2024-05-09T21:33:12.018Z,80.64
2024-05-09T21:35:46.536Z,80.71
2024-05-09T21:38:14.729Z,81.05
2024-05-09T21:40:45.419Z,81.29
2024-05-09T21:43:12.734Z,81.48
2024-05-09T21:45:42.579Z,81.08
2024-05-09T21:48:09.658Z,81.53
2024-05-09T21:50:41.661Z,81.76
2024-05-09T21:53:13.454Z,81.67
2024-05-09T21:55:43.929Z,81.03
2024-05-09T21:58:12.053Z,80.87
2024-05-09T22:00:42.944Z,80.96
2024-05-09T22:03:13.016Z,80.87
2024-05-09T22:05:43.599Z,80.55
2024-05-09T22:08:16.332Z,80.79
2024-05-09T22:10:43.366Z,81.20
2024-05-09T22:13:13.114Z,81.51
2024-05-09T22:15:40.844Z,82.03
2024-05-09T22:18:11.932Z,82.24
2024-05-09T22:20:45.120Z,83.04
2024-05-09T22:23:18.496Z,83.50
2024-05-09T22:25:45.468Z,83.33
2024-05-09T22:28:17.012Z,83.09
2024-05-09T22:30:46.208Z,83.46
2024-05-09T22:33:17.299Z,83.84
2024-05-09T22:35:44.393Z,83.91
2024-05-09T22:38:13.944Z,84.54
2024-05-09T22:40:48.305Z,83.69
2024-05-09T22:43:23.322Z,83.14
2024-05-09T22:45:52.048Z,83.40
2024-05-09T22:48:22.299Z,82.85
2024-05-09T22:50:49.737Z,82.58
2024-05-09T22:53:19.783Z,82.50
2024-05-09T22:55:49.641Z,82.97
2024-05-09T22:58:19.735Z,82.44
2024-05-09T23:00:47.014Z,83.72
2024-05-09T23:03:18.662Z,83.19
2024-05-09T23:05:45.705Z,83.62
2024-05-09T23:08:15.317Z,83.90
2024-05-09T23:10:42.307Z,83.50
2024-05-09T23:13:15.774Z,83.72
2024-05-09T23:15:42.828Z,83.11
2024-05-09T23:18:12.404Z,83.39
2024-05-09T23:20:40.287Z,83.55
2024-05-09T23:23:11.550Z,84.15
2024-05-09T23:25:39.331Z,84.15
2024-05-09T23:28:09.489Z,84.19
2024-05-09T23:30:40.890Z,83.97
2024-05-09T23:33:14.047Z,84.22
2024-05-09T23:35:43.677Z,83.75
2024-05-09T23:38:13.676Z,84.44
2024-05-09T23:40:42.229Z,84.45
2024-05-09T23:43:13.146Z,84.77
2024-05-09T23:45:43.659Z,84.77
2024-05-09T23:48:13.738Z,84.19
2024-05-09T23:50:41.516Z,83.92
2024-05-09T23:53:11.614Z,83.75
2024-05-09T23:55:39.347Z,83.68
2024-05-09T23:58:09.760Z,84.38
